SCCI/PUQ METAR and TAF weather

Enter ICAO airport designator
Station Type Date Time Source
SCCI METAR 2019/06/19 07:00 UTC NOAA

SCCI 190700Z 26020KT 9999 FEW040 06/02 Q1004 NOSIG


Station Type Date Time Source
SCCI Decoded METAR 2019/06/19 07:00 UTC NOAA

Punta Arenas, Chile (SCCI) 53-00S 070-51W 33M
Jun 19, 2019 - 03:00 AM EDT / 2019.06.19 0700 UTC
Wind: from the W (260 degrees) at 23 MPH (20 KT):0
Visibility: greater than 7 mile(s):0
Sky conditions: mostly clear
Temperature: 42 F (6 C)
Dew Point: 35 F (2 C)
Relative Humidity: 75%
Pressure (altimeter): 29.65 in. Hg (1004 hPa)
ob: SCCI 190700Z 26020KT 9999 FEW040 06/02 Q1004 NOSIG
cycle: 7

Station Type Date Time Source
SCCI TAF 2019/06/19 06:03 UTC NOAA

TAF SCCI 190452Z 1906/2006 26020G30KT 9999 FEW042 TN02/2000Z TX07/1916Z
TEMPO 1906/1912 26025G37KT
BECMG 1914/1916 26025G35KT PROB40
TEMPO 1915/1922 9000 -SHRA SCT025
BECMG 2004/2006 25015G25KT

Example: see airport list